createdAt,value
2018-02-22T00:01:37.480Z,69.50
2018-02-22T00:04:04.644Z,69.10
2018-02-22T00:06:33.024Z,69.50
2018-02-22T00:09:01.280Z,69.60
2018-02-22T00:11:29.473Z,69.20
2018-02-22T00:14:00.476Z,69.70
2018-02-22T00:16:33.700Z,70.20
2018-02-22T00:19:01.928Z,70.20
2018-02-22T00:21:39.072Z,71.20
2018-02-22T00:24:06.887Z,70.70
2018-02-22T00:26:36.427Z,70.60
2018-02-22T00:29:06.795Z,70.60
2018-02-22T00:31:34.846Z,70.60
2018-02-22T00:34:03.629Z,71.00
2018-02-22T00:36:31.843Z,71.60
2018-02-22T00:39:01.172Z,71.50
2018-02-22T00:41:32.596Z,71.20
2018-02-22T00:44:03.246Z,71.10
2018-02-22T00:46:32.428Z,71.10
2018-02-22T00:49:01.236Z,71.40
2018-02-22T00:51:30.612Z,71.30
2018-02-22T00:56:44.975Z,71.30
2018-02-22T00:59:13.534Z,71.60
2018-02-22T01:01:41.001Z,71.30
2018-02-22T01:04:07.485Z,71.30
2018-02-22T01:06:35.952Z,71.30
2018-02-22T01:09:03.918Z,71.20
2018-02-22T01:11:36.372Z,71.40
2018-02-22T01:14:06.266Z,71.40
2018-02-22T01:16:37.037Z,71.70
2018-02-22T01:19:04.826Z,71.80
2018-02-22T01:21:32.549Z,71.60
2018-02-22T01:24:01.314Z,71.40
2018-02-22T01:26:31.746Z,71.30
2018-02-22T01:29:01.866Z,71.20
2018-02-22T01:31:30.851Z,71.30
2018-02-22T01:33:59.166Z,71.10
2018-02-22T01:36:32.147Z,71.20
2018-02-22T01:39:02.224Z,71.60
2018-02-22T01:41:32.310Z,71.50
2018-02-22T01:44:05.295Z,71.30
2018-02-22T01:46:36.285Z,71.60
2018-02-22T01:49:05.531Z,71.30
2018-02-22T01:51:35.384Z,71.10
2018-02-22T01:54:04.487Z,71.30
2018-02-22T01:56:34.306Z,72.30
2018-02-22T01:59:03.700Z,71.50
2018-02-22T02:01:33.701Z,72.00
2018-02-22T02:04:01.474Z,72.00
2018-02-22T02:06:29.245Z,72.20
2018-02-22T02:09:00.466Z,71.80
2018-02-22T02:11:30.312Z,71.70
2018-02-22T02:13:59.495Z,72.00
2018-02-22T02:16:27.946Z,71.80
2018-02-22T02:18:57.029Z,72.30
2018-02-22T02:21:24.206Z,72.20
2018-02-22T02:23:50.472Z,71.70
2018-02-22T02:26:17.393Z,72.20
2018-02-22T02:28:45.206Z,71.70
2018-02-22T02:31:12.697Z,71.60
2018-02-22T02:33:40.458Z,71.30
2018-02-22T02:36:09.214Z,71.60
2018-02-22T02:38:36.177Z,71.50
2018-02-22T02:41:03.442Z,71.30
2018-02-22T02:43:31.678Z,71.20
2018-02-22T02:45:58.898Z,71.10
2018-02-22T02:48:27.682Z,71.30
2018-02-22T02:50:55.094Z,71.30
2018-02-22T02:53:21.391Z,71.30
2018-02-22T02:55:48.052Z,71.60
2018-02-22T02:58:14.217Z,71.70
2018-02-22T03:00:40.382Z,71.70
2018-02-22T03:03:06.505Z,71.30
2018-02-22T03:05:32.622Z,71.80
2018-02-22T03:07:59.526Z,71.80
2018-02-22T03:10:25.676Z,71.80
2018-02-22T03:12:51.825Z,71.70
2018-02-22T03:15:17.995Z,71.90
2018-02-22T03:17:44.207Z,71.40
2018-02-22T03:20:10.331Z,71.10
2018-02-22T03:22:36.480Z,71.30
2018-02-22T03:25:02.661Z,71.30
2018-02-22T03:27:28.791Z,71.30
2018-02-22T03:29:55.652Z,70.90
2018-02-22T03:32:22.513Z,71.30
2018-02-22T03:34:49.379Z,70.80
2018-02-22T03:37:15.525Z,70.80
2018-02-22T03:39:41.647Z,71.10
2018-02-22T03:42:08.523Z,71.10
2018-02-22T03:44:34.658Z,71.10
2018-02-22T03:47:01.925Z,71.20
2018-02-22T03:49:30.718Z,71.30
2018-02-22T03:51:58.787Z,71.30
2018-02-22T03:54:26.427Z,71.60
2018-02-22T03:56:53.567Z,71.50
2018-02-22T03:59:19.843Z,71.70
2018-02-22T04:01:45.985Z,71.90
2018-02-22T04:04:12.155Z,72.00
2018-02-22T04:06:38.345Z,72.30
2018-02-22T04:09:04.508Z,72.90
2018-02-22T04:11:31.432Z,72.00
2018-02-22T04:13:57.610Z,71.90
2018-02-22T04:16:26.203Z,72.00
2018-02-22T04:18:55.827Z,72.10
2018-02-22T04:21:24.692Z,71.90
2018-02-22T04:23:51.080Z,72.30
2018-02-22T04:26:17.993Z,72.60
2018-02-22T04:28:44.965Z,72.90
2018-02-22T04:31:11.084Z,72.80
2018-02-22T04:33:38.580Z,73.00
2018-02-22T04:36:04.890Z,72.60
2018-02-22T04:38:31.023Z,72.80
2018-02-22T04:40:57.124Z,73.10
2018-02-22T04:43:24.007Z,73.50
2018-02-22T04:45:50.174Z,73.50
2018-02-22T04:48:16.303Z,73.40
2018-02-22T04:50:42.742Z,73.50
2018-02-22T04:53:08.884Z,73.60
2018-02-22T04:55:34.987Z,73.50
2018-02-22T04:58:01.895Z,73.40
2018-02-22T05:00:28.020Z,73.30
2018-02-22T05:02:54.237Z,73.00
2018-02-22T05:05:20.428Z,73.20
2018-02-22T05:07:46.564Z,72.80
2018-02-22T05:10:12.684Z,72.60
2018-02-22T05:12:38.842Z,72.40
2018-02-22T05:15:05.060Z,72.30
2018-02-22T05:17:31.159Z,72.20
2018-02-22T05:19:58.801Z,72.10
2018-02-22T05:22:25.888Z,72.00
2018-02-22T05:24:54.433Z,72.00
2018-02-22T05:27:21.575Z,71.70
2018-02-22T05:29:48.532Z,71.20
2018-02-22T05:32:14.679Z,71.80
2018-02-22T05:34:41.056Z,72.00
2018-02-22T05:37:07.211Z,71.70
2018-02-22T05:39:33.373Z,71.80
2018-02-22T05:42:00.306Z,71.80
2018-02-22T05:44:26.440Z,71.80
2018-02-22T05:46:52.593Z,72.10
2018-02-22T05:49:18.801Z,72.40
2018-02-22T05:51:45.470Z,72.30
2018-02-22T05:54:13.182Z,72.20
2018-02-22T05:56:42.021Z,72.40
2018-02-22T05:59:08.569Z,72.30
2018-02-22T06:01:35.078Z,72.50
2018-02-22T06:04:01.816Z,72.40
2018-02-22T06:06:30.000Z,72.30
2018-02-22T06:08:58.494Z,72.10
2018-02-22T06:11:26.516Z,71.90
2018-02-22T06:13:53.827Z,72.00
2018-02-22T06:16:20.165Z,71.80
2018-02-22T06:18:46.850Z,71.90
2018-02-22T06:21:13.760Z,71.70
2018-02-22T06:23:40.584Z,71.00
2018-02-22T06:26:07.072Z,70.50
2018-02-22T06:28:34.208Z,70.00
2018-02-22T06:31:00.871Z,70.00
2018-02-22T06:33:27.747Z,70.00
2018-02-22T06:35:54.441Z,70.00
2018-02-22T06:38:21.472Z,70.00
2018-02-22T06:40:47.600Z,69.90
2018-02-22T06:43:14.705Z,69.60
2018-02-22T06:45:41.585Z,69.60
2018-02-22T06:48:12.769Z,68.80
2018-02-22T06:50:39.373Z,68.80
2018-02-22T06:53:05.778Z,68.90
2018-02-22T06:55:32.310Z,69.00
2018-02-22T06:57:59.173Z,69.20
2018-02-22T07:00:25.523Z,69.20
2018-02-22T07:02:52.042Z,68.30
2018-02-22T07:05:18.196Z,68.30
2018-02-22T07:07:44.363Z,68.10
2018-02-22T07:10:12.525Z,67.90
2018-02-22T07:12:38.893Z,67.90
2018-02-22T07:15:05.402Z,67.40
2018-02-22T07:17:31.693Z,67.00
2018-02-22T07:19:58.570Z,66.60
2018-02-22T07:22:24.788Z,66.60
2018-02-22T07:24:51.935Z,66.70
2018-02-22T07:27:18.083Z,66.50
2018-02-22T07:29:44.462Z,66.40
2018-02-22T07:32:10.610Z,65.70
2018-02-22T07:34:36.719Z,65.50
2018-02-22T07:37:02.860Z,65.20
2018-02-22T07:39:29.726Z,64.90
2018-02-22T07:41:55.856Z,64.90
2018-02-22T07:44:23.712Z,64.60
2018-02-22T07:46:49.963Z,64.40
2018-02-22T07:49:16.888Z,63.50
2018-02-22T07:51:43.088Z,63.20
2018-02-22T07:54:09.336Z,63.20
2018-02-22T07:56:35.873Z,62.60
2018-02-22T07:59:02.020Z,62.10
2018-02-22T08:01:28.199Z,61.50
2018-02-22T08:03:54.456Z,61.60
2018-02-22T08:06:20.660Z,61.90
2018-02-22T08:11:50.791Z,60.80
2018-02-22T08:14:17.066Z,61.50
2018-02-22T08:16:48.698Z,60.00
2018-02-22T08:19:17.827Z,59.60
2018-02-22T08:21:45.985Z,59.40
2018-02-22T08:24:21.470Z,58.80
2018-02-22T08:26:47.729Z,58.80
2018-02-22T08:29:14.065Z,58.30
2018-02-22T08:31:40.284Z,57.80
2018-02-22T08:34:07.231Z,57.20
2018-02-22T08:36:33.575Z,57.20
2018-02-22T08:39:01.274Z,56.90
2018-02-22T08:41:27.968Z,56.30
2018-02-22T08:46:31.698Z,56.60
2018-02-22T08:48:58.400Z,55.60
2018-02-22T08:51:37.820Z,55.60
2018-02-22T08:54:05.112Z,54.90
2018-02-22T08:56:34.467Z,54.20
2018-02-22T08:59:04.245Z,53.90
2018-02-22T09:01:33.301Z,53.10
2018-02-22T09:04:02.565Z,53.10
2018-02-22T09:06:35.373Z,52.90
2018-02-22T09:09:04.492Z,51.50
2018-02-22T09:11:35.054Z,51.50
2018-02-22T09:14:05.420Z,51.40
2018-02-22T09:16:36.486Z,51.70
2018-02-22T09:19:05.915Z,51.30
2018-02-22T09:21:35.142Z,51.20
2018-02-22T09:24:04.429Z,51.50
2018-02-22T09:26:33.882Z,50.80
2018-02-22T09:29:01.266Z,49.70
2018-02-22T09:31:28.228Z,49.60
2018-02-22T09:36:30.695Z,49.00
2018-02-22T09:38:58.331Z,48.90
2018-02-22T09:44:05.512Z,48.60
2018-02-22T09:46:34.883Z,48.70
2018-02-22T09:49:02.399Z,48.60
2018-02-22T09:51:36.120Z,47.90
2018-02-22T09:54:04.413Z,47.70
2018-02-22T09:56:34.532Z,47.90
2018-02-22T09:59:04.333Z,48.10
2018-02-22T10:01:34.590Z,48.10
2018-02-22T10:04:02.679Z,48.50
2018-02-22T10:06:35.658Z,48.20
2018-02-22T10:09:05.488Z,47.60
2018-02-22T10:11:33.093Z,47.00
2018-02-22T10:16:35.404Z,47.10
2018-02-22T10:19:04.271Z,47.00
2018-02-22T10:21:31.446Z,46.30
2018-02-22T10:23:58.301Z,45.80
2018-02-22T10:26:26.607Z,45.30
2018-02-22T10:28:53.986Z,45.30
2018-02-22T10:31:20.298Z,45.10
2018-02-22T10:33:47.217Z,45.50
2018-02-22T10:36:13.736Z,45.30
2018-02-22T10:41:48.536Z,44.00
2018-02-22T10:44:18.396Z,44.00
2018-02-22T10:46:46.681Z,43.80
2018-02-22T10:49:16.272Z,43.10
2018-02-22T10:51:44.215Z,43.10
2018-02-22T10:54:12.121Z,42.80
2018-02-22T10:56:39.326Z,43.10
2018-02-22T10:59:05.640Z,42.10
2018-02-22T11:01:39.769Z,42.20
2018-02-22T11:04:06.050Z,42.20
2018-02-22T11:06:32.236Z,41.50
2018-02-22T11:08:59.240Z,41.50
2018-02-22T11:11:26.155Z,41.20
2018-02-22T11:13:52.332Z,41.10
2018-02-22T11:16:18.524Z,40.80
2018-02-22T11:18:44.704Z,40.10
2018-02-22T11:21:10.836Z,39.90
2018-02-22T11:23:38.412Z,39.90
2018-02-22T11:26:04.630Z,40.30
2018-02-22T11:28:31.553Z,39.90
2018-02-22T11:30:57.756Z,39.90
2018-02-22T11:33:23.989Z,39.00
2018-02-22T11:35:50.159Z,39.00
2018-02-22T11:38:16.334Z,39.40
2018-02-22T11:40:42.505Z,39.50
2018-02-22T11:43:08.839Z,39.40
2018-02-22T11:45:35.016Z,39.20
2018-02-22T11:48:01.122Z,38.30
2018-02-22T11:50:27.996Z,39.20
2018-02-22T11:52:54.139Z,39.10
2018-02-22T11:55:21.402Z,38.90
2018-02-22T11:57:47.587Z,38.50
2018-02-22T12:00:13.691Z,38.50
2018-02-22T12:02:39.859Z,38.70
2018-02-22T12:05:05.999Z,38.40
2018-02-22T12:07:32.292Z,36.60
2018-02-22T12:09:58.960Z,36.80
2018-02-22T12:12:26.033Z,36.60
2018-02-22T12:14:52.838Z,36.60
2018-02-22T12:17:18.993Z,36.90
2018-02-22T12:19:45.224Z,36.70
2018-02-22T12:22:11.340Z,36.40
2018-02-22T12:24:37.467Z,35.90
2018-02-22T12:27:04.920Z,36.80
2018-02-22T12:29:31.417Z,36.60
2018-02-22T12:31:59.289Z,36.30
2018-02-22T12:34:28.606Z,36.80
2018-02-22T12:36:55.358Z,36.10
2018-02-22T12:39:21.547Z,36.50
2018-02-22T12:41:47.711Z,36.90
2018-02-22T12:44:13.868Z,36.40
2018-02-22T12:46:40.314Z,35.70
2018-02-22T12:49:06.518Z,34.50
2018-02-22T12:51:32.648Z,35.30
2018-02-22T12:53:58.875Z,35.70
2018-02-22T12:56:25.050Z,35.10
2018-02-22T12:58:51.423Z,35.20
2018-02-22T13:01:17.787Z,33.80
2018-02-22T13:03:44.569Z,33.80
2018-02-22T13:06:18.412Z,34.80
2018-02-22T13:08:45.546Z,34.70
2018-02-22T13:11:14.033Z,33.60
2018-02-22T13:13:42.476Z,34.10
2018-02-22T13:16:09.980Z,33.90
2018-02-22T13:18:36.503Z,33.90
2018-02-22T13:21:07.503Z,32.80
2018-02-22T13:23:34.240Z,33.40
2018-02-22T13:26:00.716Z,33.10
2018-02-22T13:28:32.368Z,33.40
2018-02-22T13:30:58.767Z,33.10
2018-02-22T13:33:37.815Z,33.60
2018-02-22T13:36:04.593Z,33.50
2018-02-22T13:38:43.378Z,32.70
2018-02-22T13:41:10.083Z,33.20
2018-02-22T13:43:36.288Z,34.30
2018-02-22T13:46:03.315Z,34.10
2018-02-22T13:48:42.151Z,32.70
2018-02-22T13:51:10.734Z,33.50
2018-02-22T13:53:50.225Z,34.30
2018-02-22T20:08:32.831Z,59.10
2018-02-22T20:11:00.683Z,59.30
2018-02-22T23:44:57.397Z,68.00
2018-02-22T23:47:24.299Z,68.20
2018-02-22T23:49:51.263Z,68.10
2018-02-22T23:52:17.504Z,68.10
2018-02-22T23:54:43.755Z,68.30
2018-02-22T23:57:10.150Z,68.40
2018-02-22T23:59:36.501Z,68.60
